sensor_id;sensor_type;location;lat;lon;timestamp;pressure;altitude;pressure_sealevel;temperature
18704;BMP180;9481;48.796;9.210;2022-09-13T00:00:51;96240.00;;;23.60
18704;BMP180;9481;48.796;9.210;2022-09-13T00:03:18;96240.00;;;23.60
18704;BMP180;9481;48.796;9.210;2022-09-13T00:05:44;96228.00;;;23.60
18704;BMP180;9481;48.796;9.210;2022-09-13T00:08:11;96223.00;;;23.60
18704;BMP180;9481;48.796;9.210;2022-09-13T00:10:39;96221.00;;;23.50
18704;BMP180;9481;48.796;9.210;2022-09-13T00:13:06;96222.00;;;23.50
18704;BMP180;9481;48.796;9.210;2022-09-13T00:15:33;96229.00;;;23.50
18704;BMP180;9481;48.796;9.210;2022-09-13T00:17:59;96222.00;;;23.50
18704;BMP180;9481;48.796;9.210;2022-09-13T00:20:25;96232.00;;;23.50
18704;BMP180;9481;48.796;9.210;2022-09-13T00:22:51;96209.00;;;23.40
18704;BMP180;9481;48.796;9.210;2022-09-13T00:25:17;96207.00;;;23.40
18704;BMP180;9481;48.796;9.210;2022-09-13T00:27:44;96209.00;;;23.40
18704;BMP180;9481;48.796;9.210;2022-09-13T00:30:11;96210.00;;;23.40
18704;BMP180;9481;48.796;9.210;2022-09-13T00:32:38;96206.00;;;23.40
18704;BMP180;9481;48.796;9.210;2022-09-13T00:35:05;96208.00;;;23.50
18704;BMP180;9481;48.796;9.210;2022-09-13T00:37:31;96210.00;;;23.40
18704;BMP180;9481;48.796;9.210;2022-09-13T00:40:01;96203.00;;;23.50
18704;BMP180;9481;48.796;9.210;2022-09-13T00:42:30;96211.00;;;23.40
18704;BMP180;9481;48.796;9.210;2022-09-13T00:45:11;96218.00;;;23.40
18704;BMP180;9481;48.796;9.210;2022-09-13T00:47:59;96211.00;;;23.40
18704;BMP180;9481;48.796;9.210;2022-09-13T00:50:38;96212.00;;;23.30
18704;BMP180;9481;48.796;9.210;2022-09-13T00:53:32;96215.00;;;23.30
18704;BMP180;9481;48.796;9.210;2022-09-13T00:56:12;96217.00;;;23.30
18704;BMP180;9481;48.796;9.210;2022-09-13T01:01:17;96206.00;;;23.30
18704;BMP180;9481;48.796;9.210;2022-09-13T01:03:47;96202.00;;;23.30
18704;BMP180;9481;48.796;9.210;2022-09-13T01:06:19;96195.00;;;23.30
18704;BMP180;9481;48.796;9.210;2022-09-13T01:08:51;96191.00;;;23.30
18704;BMP180;9481;48.796;9.210;2022-09-13T01:11:46;96189.00;;;23.20
18704;BMP180;9481;48.796;9.210;2022-09-13T01:14:17;96180.00;;;23.30
18704;BMP180;9481;48.796;9.210;2022-09-13T01:16:43;96188.00;;;23.30
18704;BMP180;9481;48.796;9.210;2022-09-13T01:19:09;96180.00;;;23.30
18704;BMP180;9481;48.796;9.210;2022-09-13T01:30:18;96175.00;;;23.10
18704;BMP180;9481;48.796;9.210;2022-09-13T01:33:38;96184.00;;;23.00
18704;BMP180;9481;48.796;9.210;2022-09-13T01:36:45;96186.00;;;23.00
18704;BMP180;9481;48.796;9.210;2022-09-13T01:49:03;96188.00;;;22.90
18704;BMP180;9481;48.796;9.210;2022-09-13T01:51:45;96187.00;;;22.90
18704;BMP180;9481;48.796;9.210;2022-09-13T01:57:26;96190.00;;;22.90
18704;BMP180;9481;48.796;9.210;2022-09-13T02:05:51;96194.00;;;22.80
18704;BMP180;9481;48.796;9.210;2022-09-13T02:08:31;96200.00;;;22.80
18704;BMP180;9481;48.796;9.210;2022-09-13T02:11:10;96191.00;;;22.80
18704;BMP180;9481;48.796;9.210;2022-09-13T02:13:45;96195.00;;;22.80
18704;BMP180;9481;48.796;9.210;2022-09-13T02:16:21;96183.00;;;22.80
18704;BMP180;9481;48.796;9.210;2022-09-13T02:18:58;96188.00;;;22.80
18704;BMP180;9481;48.796;9.210;2022-09-13T02:21:31;96187.00;;;22.70
18704;BMP180;9481;48.796;9.210;2022-09-13T02:24:06;96190.00;;;22.70
18704;BMP180;9481;48.796;9.210;2022-09-13T02:26:36;96192.00;;;22.80
18704;BMP180;9481;48.796;9.210;2022-09-13T02:29:10;96203.00;;;22.70
18704;BMP180;9481;48.796;9.210;2022-09-13T02:31:54;96210.00;;;22.70
18704;BMP180;9481;48.796;9.210;2022-09-13T02:34:29;96211.00;;;22.70
18704;BMP180;9481;48.796;9.210;2022-09-13T02:36:57;96200.00;;;22.70
18704;BMP180;9481;48.796;9.210;2022-09-13T02:39:28;96205.00;;;22.70
18704;BMP180;9481;48.796;9.210;2022-09-13T02:44:45;96199.00;;;22.70
18704;BMP180;9481;48.796;9.210;2022-09-13T02:53:29;96193.00;;;22.60
18704;BMP180;9481;48.796;9.210;2022-09-13T02:56:34;96193.00;;;22.60
18704;BMP180;9481;48.796;9.210;2022-09-13T02:59:16;96197.00;;;22.60
18704;BMP180;9481;48.796;9.210;2022-09-13T03:01:53;96195.00;;;22.60
18704;BMP180;9481;48.796;9.210;2022-09-13T03:04:21;96212.00;;;22.70
18704;BMP180;9481;48.796;9.210;2022-09-13T03:06:49;96201.00;;;22.60
18704;BMP180;9481;48.796;9.210;2022-09-13T03:09:15;96212.00;;;22.60
18704;BMP180;9481;48.796;9.210;2022-09-13T03:15:25;96175.00;;;22.50
18704;BMP180;9481;48.796;9.210;2022-09-13T03:23:41;96171.00;;;22.50
18704;BMP180;9481;48.796;9.210;2022-09-13T03:29:23;96162.00;;;22.40
18704;BMP180;9481;48.796;9.210;2022-09-13T03:38:00;96166.00;;;22.40
18704;BMP180;9481;48.796;9.210;2022-09-13T03:40:55;96170.00;;;22.40
18704;BMP180;9481;48.796;9.210;2022-09-13T03:43:41;96177.00;;;22.40
18704;BMP180;9481;48.796;9.210;2022-09-13T03:46:14;96177.00;;;22.40
18704;BMP180;9481;48.796;9.210;2022-09-13T03:48:43;96186.00;;;22.40
18704;BMP180;9481;48.796;9.210;2022-09-13T03:51:10;96181.00;;;22.50
18704;BMP180;9481;48.796;9.210;2022-09-13T03:53:44;96168.00;;;22.40
18704;BMP180;9481;48.796;9.210;2022-09-13T03:56:19;96165.00;;;22.40
18704;BMP180;9481;48.796;9.210;2022-09-13T03:58:46;96161.00;;;22.40
18704;BMP180;9481;48.796;9.210;2022-09-13T04:01:12;96149.00;;;22.40
18704;BMP180;9481;48.796;9.210;2022-09-13T04:03:39;96151.00;;;22.40
18704;BMP180;9481;48.796;9.210;2022-09-13T04:06:05;96158.00;;;22.40
18704;BMP180;9481;48.796;9.210;2022-09-13T04:08:32;96164.00;;;22.40
18704;BMP180;9481;48.796;9.210;2022-09-13T04:10:58;96160.00;;;22.40
18704;BMP180;9481;48.796;9.210;2022-09-13T04:13:24;96149.00;;;22.40
18704;BMP180;9481;48.796;9.210;2022-09-13T04:15:49;96146.00;;;22.30
18704;BMP180;9481;48.796;9.210;2022-09-13T04:18:15;96145.00;;;22.30
18704;BMP180;9481;48.796;9.210;2022-09-13T04:20:42;96142.00;;;22.30
18704;BMP180;9481;48.796;9.210;2022-09-13T04:23:08;96154.00;;;22.30
18704;BMP180;9481;48.796;9.210;2022-09-13T04:25:38;96144.00;;;22.30
18704;BMP180;9481;48.796;9.210;2022-09-13T04:28:04;96142.00;;;22.30
18704;BMP180;9481;48.796;9.210;2022-09-13T04:30:31;96152.00;;;22.20
18704;BMP180;9481;48.796;9.210;2022-09-13T04:32:56;96154.00;;;22.20
18704;BMP180;9481;48.796;9.210;2022-09-13T04:35:22;96155.00;;;22.20
18704;BMP180;9481;48.796;9.210;2022-09-13T04:37:48;96160.00;;;22.20
18704;BMP180;9481;48.796;9.210;2022-09-13T04:40:14;96170.00;;;22.20
18704;BMP180;9481;48.796;9.210;2022-09-13T04:42:39;96172.00;;;22.10
18704;BMP180;9481;48.796;9.210;2022-09-13T04:45:06;96166.00;;;22.10
18704;BMP180;9481;48.796;9.210;2022-09-13T04:47:32;96182.00;;;22.10
18704;BMP180;9481;48.796;9.210;2022-09-13T04:49:58;96172.00;;;22.10
18704;BMP180;9481;48.796;9.210;2022-09-13T04:52:24;96167.00;;;22.10
18704;BMP180;9481;48.796;9.210;2022-09-13T04:54:49;96168.00;;;22.10
18704;BMP180;9481;48.796;9.210;2022-09-13T04:57:15;96173.00;;;22.10
18704;BMP180;9481;48.796;9.210;2022-09-13T04:59:42;96166.00;;;22.10
18704;BMP180;9481;48.796;9.210;2022-09-13T05:02:08;96174.00;;;22.10
18704;BMP180;9481;48.796;9.210;2022-09-13T05:04:34;96182.00;;;22.10
18704;BMP180;9481;48.796;9.210;2022-09-13T05:06:59;96177.00;;;22.10
18704;BMP180;9481;48.796;9.210;2022-09-13T05:09:25;96190.00;;;22.10
18704;BMP180;9481;48.796;9.210;2022-09-13T05:11:50;96192.00;;;22.10
18704;BMP180;9481;48.796;9.210;2022-09-13T05:14:16;96179.00;;;22.10
18704;BMP180;9481;48.796;9.210;2022-09-13T05:16:42;96179.00;;;22.10
18704;BMP180;9481;48.796;9.210;2022-09-13T05:19:09;96188.00;;;22.10
18704;BMP180;9481;48.796;9.210;2022-09-13T05:21:36;96193.00;;;22.10
18704;BMP180;9481;48.796;9.210;2022-09-13T05:24:01;96179.00;;;22.10
18704;BMP180;9481;48.796;9.210;2022-09-13T05:26:29;96182.00;;;22.10
18704;BMP180;9481;48.796;9.210;2022-09-13T05:28:57;96187.00;;;22.20
18704;BMP180;9481;48.796;9.210;2022-09-13T05:31:30;96191.00;;;22.10
18704;BMP180;9481;48.796;9.210;2022-09-13T05:34:05;96201.00;;;22.20
18704;BMP180;9481;48.796;9.210;2022-09-13T05:36:32;96204.00;;;22.20
18704;BMP180;9481;48.796;9.210;2022-09-13T05:38:58;96199.00;;;22.20
18704;BMP180;9481;48.796;9.210;2022-09-13T05:41:24;96204.00;;;22.20
18704;BMP180;9481;48.796;9.210;2022-09-13T05:43:50;96216.00;;;22.20
18704;BMP180;9481;48.796;9.210;2022-09-13T05:46:18;96198.00;;;22.20
18704;BMP180;9481;48.796;9.210;2022-09-13T05:48:45;96207.00;;;22.20
18704;BMP180;9481;48.796;9.210;2022-09-13T05:51:19;96192.00;;;22.20
18704;BMP180;9481;48.796;9.210;2022-09-13T05:53:50;96218.00;;;22.20
18704;BMP180;9481;48.796;9.210;2022-09-13T05:56:21;96206.00;;;22.20
18704;BMP180;9481;48.796;9.210;2022-09-13T05:58:49;96206.00;;;22.20
18704;BMP180;9481;48.796;9.210;2022-09-13T06:01:22;96210.00;;;22.20
18704;BMP180;9481;48.796;9.210;2022-09-13T06:03:50;96202.00;;;22.20
18704;BMP180;9481;48.796;9.210;2022-09-13T06:06:17;96205.00;;;22.20
18704;BMP180;9481;48.796;9.210;2022-09-13T06:08:43;96199.00;;;22.20
18704;BMP180;9481;48.796;9.210;2022-09-13T06:11:12;96198.00;;;22.20
18704;BMP180;9481;48.796;9.210;2022-09-13T06:13:39;96202.00;;;22.30
18704;BMP180;9481;48.796;9.210;2022-09-13T06:16:08;96220.00;;;22.30
18704;BMP180;9481;48.796;9.210;2022-09-13T06:18:34;96219.00;;;22.30
18704;BMP180;9481;48.796;9.210;2022-09-13T06:21:04;96229.00;;;22.30
18704;BMP180;9481;48.796;9.210;2022-09-13T06:23:31;96234.00;;;22.40
18704;BMP180;9481;48.796;9.210;2022-09-13T06:26:07;96230.00;;;22.30
18704;BMP180;9481;48.796;9.210;2022-09-13T06:28:34;96221.00;;;22.40
18704;BMP180;9481;48.796;9.210;2022-09-13T06:31:05;96234.00;;;22.40
18704;BMP180;9481;48.796;9.210;2022-09-13T06:33:36;96230.00;;;22.40
18704;BMP180;9481;48.796;9.210;2022-09-13T06:36:16;96232.00;;;22.40
18704;BMP180;9481;48.796;9.210;2022-09-13T06:38:47;96221.00;;;22.40
18704;BMP180;9481;48.796;9.210;2022-09-13T06:41:19;96220.00;;;22.40
18704;BMP180;9481;48.796;9.210;2022-09-13T06:43:46;96218.00;;;22.50
18704;BMP180;9481;48.796;9.210;2022-09-13T06:46:15;96218.00;;;22.50
18704;BMP180;9481;48.796;9.210;2022-09-13T06:48:43;96210.00;;;22.60
18704;BMP180;9481;48.796;9.210;2022-09-13T06:51:14;96219.00;;;22.70
18704;BMP180;9481;48.796;9.210;2022-09-13T06:53:41;96222.00;;;22.80
18704;BMP180;9481;48.796;9.210;2022-09-13T06:56:14;96213.00;;;22.90
18704;BMP180;9481;48.796;9.210;2022-09-13T06:58:43;96208.00;;;23.00
18704;BMP180;9481;48.796;9.210;2022-09-13T07:01:19;96211.00;;;23.10
18704;BMP180;9481;48.796;9.210;2022-09-13T07:03:47;96218.00;;;23.20
18704;BMP180;9481;48.796;9.210;2022-09-13T07:06:17;96209.00;;;23.30
18704;BMP180;9481;48.796;9.210;2022-09-13T07:08:45;96201.00;;;23.40
18704;BMP180;9481;48.796;9.210;2022-09-13T07:11:13;96190.00;;;23.50
18704;BMP180;9481;48.796;9.210;2022-09-13T07:13:39;96206.00;;;23.60
18704;BMP180;9481;48.796;9.210;2022-09-13T07:16:10;96207.00;;;23.70
18704;BMP180;9481;48.796;9.210;2022-09-13T07:18:37;96204.00;;;23.80
18704;BMP180;9481;48.796;9.210;2022-09-13T07:21:06;96205.00;;;23.80
18704;BMP180;9481;48.796;9.210;2022-09-13T07:23:35;96208.00;;;23.90
18704;BMP180;9481;48.796;9.210;2022-09-13T07:26:02;96209.00;;;23.90
18704;BMP180;9481;48.796;9.210;2022-09-13T07:28:36;96215.00;;;23.90
18704;BMP180;9481;48.796;9.210;2022-09-13T07:33:37;96206.00;;;24.00
18704;BMP180;9481;48.796;9.210;2022-09-13T07:36:04;96191.00;;;24.10
18704;BMP180;9481;48.796;9.210;2022-09-13T07:38:34;96188.00;;;24.10
18704;BMP180;9481;48.796;9.210;2022-09-13T07:41:02;96184.00;;;24.20
18704;BMP180;9481;48.796;9.210;2022-09-13T07:43:35;96187.00;;;24.30
18704;BMP180;9481;48.796;9.210;2022-09-13T07:46:06;96201.00;;;24.30
18704;BMP180;9481;48.796;9.210;2022-09-13T07:48:36;96202.00;;;24.40
18704;BMP180;9481;48.796;9.210;2022-09-13T07:51:08;96204.00;;;24.40
18704;BMP180;9481;48.796;9.210;2022-09-13T07:53:36;96204.00;;;24.50
18704;BMP180;9481;48.796;9.210;2022-09-13T07:56:15;96197.00;;;24.50
18704;BMP180;9481;48.796;9.210;2022-09-13T07:58:45;96187.00;;;24.70
18704;BMP180;9481;48.796;9.210;2022-09-13T08:03:56;96197.00;;;25.00
18704;BMP180;9481;48.796;9.210;2022-09-13T08:06:24;96215.00;;;25.10
18704;BMP180;9481;48.796;9.210;2022-09-13T08:08:51;96209.00;;;25.30
18704;BMP180;9481;48.796;9.210;2022-09-13T08:11:35;96188.00;;;25.40
18704;BMP180;9481;48.796;9.210;2022-09-13T08:14:04;96192.00;;;25.60
18704;BMP180;9481;48.796;9.210;2022-09-13T08:16:31;96184.00;;;25.70
18704;BMP180;9481;48.796;9.210;2022-09-13T08:19:00;96196.00;;;25.80
18704;BMP180;9481;48.796;9.210;2022-09-13T08:21:33;96192.00;;;25.90
18704;BMP180;9481;48.796;9.210;2022-09-13T08:23:59;96200.00;;;26.00
18704;BMP180;9481;48.796;9.210;2022-09-13T08:26:30;96193.00;;;26.10
18704;BMP180;9481;48.796;9.210;2022-09-13T08:28:59;96208.00;;;26.10
18704;BMP180;9481;48.796;9.210;2022-09-13T08:31:25;96200.00;;;26.10
18704;BMP180;9481;48.796;9.210;2022-09-13T08:33:52;96190.00;;;26.10
18704;BMP180;9481;48.796;9.210;2022-09-13T08:36:18;96200.00;;;26.20
18704;BMP180;9481;48.796;9.210;2022-09-13T08:38:50;96185.00;;;26.20
18704;BMP180;9481;48.796;9.210;2022-09-13T08:44:41;96198.00;;;26.30
18704;BMP180;9481;48.796;9.210;2022-09-13T08:47:27;96203.00;;;26.30
18704;BMP180;9481;48.796;9.210;2022-09-13T08:53:16;96198.00;;;26.40
18704;BMP180;9481;48.796;9.210;2022-09-13T08:56:08;96199.00;;;26.50
18704;BMP180;9481;48.796;9.210;2022-09-13T08:58:54;96191.00;;;26.60
18704;BMP180;9481;48.796;9.210;2022-09-13T09:01:32;96173.00;;;26.60
18704;BMP180;9481;48.796;9.210;2022-09-13T09:04:38;96178.00;;;26.50
18704;BMP180;9481;48.796;9.210;2022-09-13T09:07:21;96174.00;;;26.50
18704;BMP180;9481;48.796;9.210;2022-09-13T09:10:18;96178.00;;;26.50
18704;BMP180;9481;48.796;9.210;2022-09-13T09:12:54;96169.00;;;26.60
18704;BMP180;9481;48.796;9.210;2022-09-13T09:15:26;96176.00;;;26.70
18704;BMP180;9481;48.796;9.210;2022-09-13T09:18:17;96178.00;;;26.80
18704;BMP180;9481;48.796;9.210;2022-09-13T09:20:48;96175.00;;;26.90
18704;BMP180;9481;48.796;9.210;2022-09-13T09:23:34;96186.00;;;27.00
18704;BMP180;9481;48.796;9.210;2022-09-13T09:29:38;96179.00;;;27.10
18704;BMP180;9481;48.796;9.210;2022-09-13T09:37:26;96181.00;;;27.20
18704;BMP180;9481;48.796;9.210;2022-09-13T09:39:58;96182.00;;;27.30
18704;BMP180;9481;48.796;9.210;2022-09-13T09:42:31;96181.00;;;27.50
18704;BMP180;9481;48.796;9.210;2022-09-13T09:45:05;96173.00;;;27.70
18704;BMP180;9481;48.796;9.210;2022-09-13T09:47:49;96187.00;;;27.80
18704;BMP180;9481;48.796;9.210;2022-09-13T09:50:23;96184.00;;;28.00
18704;BMP180;9481;48.796;9.210;2022-09-13T09:53:13;96182.00;;;28.10
18704;BMP180;9481;48.796;9.210;2022-09-13T09:58:45;96187.00;;;28.50
18704;BMP180;9481;48.796;9.210;2022-09-13T10:01:30;96194.00;;;28.60
18704;BMP180;9481;48.796;9.210;2022-09-13T10:06:37;96203.00;;;28.90
18704;BMP180;9481;48.796;9.210;2022-09-13T10:09:19;96202.00;;;28.90
18704;BMP180;9481;48.796;9.210;2022-09-13T10:11:56;96202.00;;;29.00
18704;BMP180;9481;48.796;9.210;2022-09-13T10:14:44;96208.00;;;29.10
18704;BMP180;9481;48.796;9.210;2022-09-13T10:17:24;96214.00;;;29.20
18704;BMP180;9481;48.796;9.210;2022-09-13T10:22:40;96200.00;;;29.50
18704;BMP180;9481;48.796;9.210;2022-09-13T10:25:21;96192.00;;;29.60
18704;BMP180;9481;48.796;9.210;2022-09-13T10:27:51;96189.00;;;29.80
18704;BMP180;9481;48.796;9.210;2022-09-13T10:30:39;96191.00;;;29.80
18704;BMP180;9481;48.796;9.210;2022-09-13T10:35:48;96194.00;;;30.20
18704;BMP180;9481;48.796;9.210;2022-09-13T10:38:40;96184.00;;;30.30
18704;BMP180;9481;48.796;9.210;2022-09-13T10:41:10;96184.00;;;30.40
18704;BMP180;9481;48.796;9.210;2022-09-13T10:43:44;96194.00;;;30.60
18704;BMP180;9481;48.796;9.210;2022-09-13T10:46:14;96185.00;;;30.70
18704;BMP180;9481;48.796;9.210;2022-09-13T10:48:48;96187.00;;;30.80
18704;BMP180;9481;48.796;9.210;2022-09-13T10:54:22;96191.00;;;31.00
18704;BMP180;9481;48.796;9.210;2022-09-13T10:56:48;96190.00;;;31.30
18704;BMP180;9481;48.796;9.210;2022-09-13T10:59:25;96184.00;;;31.40
18704;BMP180;9481;48.796;9.210;2022-09-13T11:05:26;96177.00;;;31.80
18704;BMP180;9481;48.796;9.210;2022-09-13T11:11:15;96164.00;;;32.20
18704;BMP180;9481;48.796;9.210;2022-09-13T11:17:03;96165.00;;;32.50
18704;BMP180;9481;48.796;9.210;2022-09-13T11:23:10;96168.00;;;32.50
18704;BMP180;9481;48.796;9.210;2022-09-13T11:34:58;96169.00;;;32.60
18704;BMP180;9481;48.796;9.210;2022-09-13T11:38:14;96167.00;;;32.70
18704;BMP180;9481;48.796;9.210;2022-09-13T11:41:07;96170.00;;;32.90
18704;BMP180;9481;48.796;9.210;2022-09-13T11:43:56;96174.00;;;33.00
18704;BMP180;9481;48.796;9.210;2022-09-13T11:52:25;96174.00;;;33.40
18704;BMP180;9481;48.796;9.210;2022-09-13T11:56:08;96173.00;;;33.40
18704;BMP180;9481;48.796;9.210;2022-09-13T11:58:18;96162.00;;;33.60
18704;BMP180;9481;48.796;9.210;2022-09-13T12:00:51;96162.00;;;33.70
18704;BMP180;9481;48.796;9.210;2022-09-13T12:03:42;96171.00;;;33.70
18704;BMP180;9481;48.796;9.210;2022-09-13T12:06:35;96168.00;;;33.70
18704;BMP180;9481;48.796;9.210;2022-09-13T12:09:28;96169.00;;;33.80
18704;BMP180;9481;48.796;9.210;2022-09-13T12:12:09;96159.00;;;33.80
18704;BMP180;9481;48.796;9.210;2022-09-13T12:14:53;96161.00;;;33.70
18704;BMP180;9481;48.796;9.210;2022-09-13T12:17:26;96165.00;;;33.70
18704;BMP180;9481;48.796;9.210;2022-09-13T12:19:57;96159.00;;;33.60
18704;BMP180;9481;48.796;9.210;2022-09-13T12:22:29;96159.00;;;33.40
18704;BMP180;9481;48.796;9.210;2022-09-13T12:25:03;96156.00;;;33.30
18704;BMP180;9481;48.796;9.210;2022-09-13T12:27:44;96146.00;;;33.30
18704;BMP180;9481;48.796;9.210;2022-09-13T12:30:20;96149.00;;;33.40
18704;BMP180;9481;48.796;9.210;2022-09-13T12:32:48;96149.00;;;33.50
18704;BMP180;9481;48.796;9.210;2022-09-13T12:35:52;96161.00;;;33.40
18704;BMP180;9481;48.796;9.210;2022-09-13T12:39:02;96162.00;;;33.40
18704;BMP180;9481;48.796;9.210;2022-09-13T12:42:07;96141.00;;;33.30
18704;BMP180;9481;48.796;9.210;2022-09-13T13:00:11;96108.00;;;33.40
18704;BMP180;9481;48.796;9.210;2022-09-13T13:05:37;96099.00;;;33.70
18704;BMP180;9481;48.796;9.210;2022-09-13T13:11:10;96089.00;;;33.90
18704;BMP180;9481;48.796;9.210;2022-09-13T13:13:44;96081.00;;;34.00
18704;BMP180;9481;48.796;9.210;2022-09-13T13:16:29;96085.00;;;34.00
18704;BMP180;9481;48.796;9.210;2022-09-13T13:19:30;96076.00;;;33.90
18704;BMP180;9481;48.796;9.210;2022-09-13T13:25:36;96083.00;;;33.80
18704;BMP180;9481;48.796;9.210;2022-09-13T13:31:07;96070.00;;;33.90
18704;BMP180;9481;48.796;9.210;2022-09-13T13:33:50;96075.00;;;34.00
18704;BMP180;9481;48.796;9.210;2022-09-13T13:36:29;96067.00;;;34.10
18704;BMP180;9481;48.796;9.210;2022-09-13T13:39:00;96071.00;;;34.30
18704;BMP180;9481;48.796;9.210;2022-09-13T13:43:59;96076.00;;;34.60
18704;BMP180;9481;48.796;9.210;2022-09-13T13:46:31;96064.00;;;34.70
18704;BMP180;9481;48.796;9.210;2022-09-13T14:12:06;96050.00;;;34.00
18704;BMP180;9481;48.796;9.210;2022-09-13T14:18:11;96047.00;;;33.80
18704;BMP180;9481;48.796;9.210;2022-09-13T14:21:04;96048.00;;;33.70
18704;BMP180;9481;48.796;9.210;2022-09-13T14:23:30;96048.00;;;33.70
18704;BMP180;9481;48.796;9.210;2022-09-13T14:25:59;96042.00;;;33.60
18704;BMP180;9481;48.796;9.210;2022-09-13T14:28:25;96040.00;;;33.60
18704;BMP180;9481;48.796;9.210;2022-09-13T14:30:57;96031.00;;;33.50
18704;BMP180;9481;48.796;9.210;2022-09-13T14:33:31;96042.00;;;33.50
18704;BMP180;9481;48.796;9.210;2022-09-13T14:36:13;96037.00;;;33.50
18704;BMP180;9481;48.796;9.210;2022-09-13T14:38:51;96037.00;;;33.50
18704;BMP180;9481;48.796;9.210;2022-09-13T14:41:20;96035.00;;;33.60
18704;BMP180;9481;48.796;9.210;2022-09-13T14:43:48;96023.00;;;33.60
18704;BMP180;9481;48.796;9.210;2022-09-13T14:46:27;96025.00;;;33.50
18704;BMP180;9481;48.796;9.210;2022-09-13T14:49:01;96022.00;;;33.60
18704;BMP180;9481;48.796;9.210;2022-09-13T14:51:48;96026.00;;;33.60
18704;BMP180;9481;48.796;9.210;2022-09-13T14:54:33;96013.00;;;33.50
18704;BMP180;9481;48.796;9.210;2022-09-13T14:57:02;96013.00;;;33.50
18704;BMP180;9481;48.796;9.210;2022-09-13T15:00:20;96023.00;;;33.40
18704;BMP180;9481;48.796;9.210;2022-09-13T15:02:52;96009.00;;;33.40
18704;BMP180;9481;48.796;9.210;2022-09-13T15:05:21;96006.00;;;33.30
18704;BMP180;9481;48.796;9.210;2022-09-13T15:07:48;95992.00;;;33.30
18704;BMP180;9481;48.796;9.210;2022-09-13T15:15:38;95989.00;;;32.80
18704;BMP180;9481;48.796;9.210;2022-09-13T15:21:03;95982.00;;;32.60
18704;BMP180;9481;48.796;9.210;2022-09-13T15:23:35;95970.00;;;32.50
18704;BMP180;9481;48.796;9.210;2022-09-13T15:28:53;95976.00;;;32.40
18704;BMP180;9481;48.796;9.210;2022-09-13T15:31:26;95970.00;;;32.30
18704;BMP180;9481;48.796;9.210;2022-09-13T15:34:21;95970.00;;;32.20
18704;BMP180;9481;48.796;9.210;2022-09-13T15:37:10;95961.00;;;32.10
18704;BMP180;9481;48.796;9.210;2022-09-13T15:40:01;95963.00;;;32.00
18704;BMP180;9481;48.796;9.210;2022-09-13T15:42:27;95960.00;;;32.00
18704;BMP180;9481;48.796;9.210;2022-09-13T15:44:53;95954.00;;;31.90
18704;BMP180;9481;48.796;9.210;2022-09-13T15:47:18;95959.00;;;31.80
18704;BMP180;9481;48.796;9.210;2022-09-13T15:49:50;95954.00;;;31.70
18704;BMP180;9481;48.796;9.210;2022-09-13T15:52:18;95941.00;;;31.70
18704;BMP180;9481;48.796;9.210;2022-09-13T15:54:48;95939.00;;;31.60
18704;BMP180;9481;48.796;9.210;2022-09-13T15:57:22;95946.00;;;31.50
18704;BMP180;9481;48.796;9.210;2022-09-13T15:59:49;95943.00;;;31.50
18704;BMP180;9481;48.796;9.210;2022-09-13T16:02:22;95939.00;;;31.30
18704;BMP180;9481;48.796;9.210;2022-09-13T16:04:48;95939.00;;;31.30
18704;BMP180;9481;48.796;9.210;2022-09-13T16:07:15;95937.00;;;31.30
18704;BMP180;9481;48.796;9.210;2022-09-13T16:09:42;95928.00;;;31.20
18704;BMP180;9481;48.796;9.210;2022-09-13T16:12:09;95916.00;;;31.10
18704;BMP180;9481;48.796;9.210;2022-09-13T16:14:35;95916.00;;;31.10
18704;BMP180;9481;48.796;9.210;2022-09-13T16:17:38;95911.00;;;31.00
18704;BMP180;9481;48.796;9.210;2022-09-13T16:19:57;95919.00;;;30.90
18704;BMP180;9481;48.796;9.210;2022-09-13T16:22:23;95916.00;;;30.80
18704;BMP180;9481;48.796;9.210;2022-09-13T16:24:49;95907.00;;;30.70
18704;BMP180;9481;48.796;9.210;2022-09-13T16:27:17;95915.00;;;30.70
18704;BMP180;9481;48.796;9.210;2022-09-13T16:29:43;95906.00;;;30.60
18704;BMP180;9481;48.796;9.210;2022-09-13T16:32:09;95904.00;;;30.60
18704;BMP180;9481;48.796;9.210;2022-09-13T16:34:35;95917.00;;;30.50
18704;BMP180;9481;48.796;9.210;2022-09-13T16:37:01;95913.00;;;30.50
18704;BMP180;9481;48.796;9.210;2022-09-13T16:39:26;95913.00;;;30.50
18704;BMP180;9481;48.796;9.210;2022-09-13T16:41:52;95912.00;;;30.40
18704;BMP180;9481;48.796;9.210;2022-09-13T16:44:18;95907.00;;;30.40
18704;BMP180;9481;48.796;9.210;2022-09-13T16:46:44;95919.00;;;30.30
18704;BMP180;9481;48.796;9.210;2022-09-13T16:49:10;95918.00;;;30.30
18704;BMP180;9481;48.796;9.210;2022-09-13T16:51:36;95901.00;;;30.30
18704;BMP180;9481;48.796;9.210;2022-09-13T16:54:03;95899.00;;;30.20
18704;BMP180;9481;48.796;9.210;2022-09-13T16:56:29;95899.00;;;30.20
18704;BMP180;9481;48.796;9.210;2022-09-13T16:58:55;95891.00;;;30.20
18704;BMP180;9481;48.796;9.210;2022-09-13T17:01:26;95889.00;;;30.10
18704;BMP180;9481;48.796;9.210;2022-09-13T17:03:53;95889.00;;;30.10
18704;BMP180;9481;48.796;9.210;2022-09-13T17:06:21;95894.00;;;30.10
18704;BMP180;9481;48.796;9.210;2022-09-13T17:09:06;95888.00;;;29.90
18704;BMP180;9481;48.796;9.210;2022-09-13T17:11:36;95895.00;;;29.90
18704;BMP180;9481;48.796;9.210;2022-09-13T17:14:06;95892.00;;;29.90
18704;BMP180;9481;48.796;9.210;2022-09-13T17:16:38;95891.00;;;29.90
18704;BMP180;9481;48.796;9.210;2022-09-13T17:19:10;95888.00;;;29.90
18704;BMP180;9481;48.796;9.210;2022-09-13T17:21:36;95899.00;;;29.80
18704;BMP180;9481;48.796;9.210;2022-09-13T17:24:03;95892.00;;;29.80
18704;BMP180;9481;48.796;9.210;2022-09-13T17:26:29;95894.00;;;29.80
18704;BMP180;9481;48.796;9.210;2022-09-13T17:28:55;95894.00;;;29.70
18704;BMP180;9481;48.796;9.210;2022-09-13T17:31:20;95890.00;;;29.70
18704;BMP180;9481;48.796;9.210;2022-09-13T17:33:46;95879.00;;;29.70
18704;BMP180;9481;48.796;9.210;2022-09-13T17:36:13;95880.00;;;29.60
18704;BMP180;9481;48.796;9.210;2022-09-13T17:38:40;95886.00;;;29.60
18704;BMP180;9481;48.796;9.210;2022-09-13T17:41:11;95878.00;;;29.50
18704;BMP180;9481;48.796;9.210;2022-09-13T17:43:38;95876.00;;;29.50
18704;BMP180;9481;48.796;9.210;2022-09-13T17:46:06;95885.00;;;29.50
18704;BMP180;9481;48.796;9.210;2022-09-13T17:48:33;95892.00;;;29.40
18704;BMP180;9481;48.796;9.210;2022-09-13T17:51:02;95878.00;;;29.40
18704;BMP180;9481;48.796;9.210;2022-09-13T17:53:28;95895.00;;;29.40
18704;BMP180;9481;48.796;9.210;2022-09-13T17:55:53;95885.00;;;29.30
18704;BMP180;9481;48.796;9.210;2022-09-13T17:58:19;95875.00;;;29.30
18704;BMP180;9481;48.796;9.210;2022-09-13T18:00:45;95879.00;;;29.30
18704;BMP180;9481;48.796;9.210;2022-09-13T18:03:10;95884.00;;;29.20